sensor_id;sensor_type;location;lat;lon;timestamp;P1;durP1;ratioP1;P2;durP2;ratioP2
42094;SDS011;27753;55.724;37.612;2023-07-31T00:00:34;8.27;;;4.80;;
42094;SDS011;27753;55.724;37.612;2023-07-31T00:03:00;6.75;;;4.85;;
42094;SDS011;27753;55.724;37.612;2023-07-31T00:05:25;8.73;;;4.60;;
42094;SDS011;27753;55.724;37.612;2023-07-31T00:07:51;7.13;;;4.55;;
42094;SDS011;27753;55.724;37.612;2023-07-31T00:10:19;7.68;;;4.45;;
42094;SDS011;27753;55.724;37.612;2023-07-31T00:12:45;12.30;;;4.32;;
42094;SDS011;27753;55.724;37.612;2023-07-31T00:15:11;7.13;;;4.70;;
42094;SDS011;27753;55.724;37.612;2023-07-31T00:17:38;6.80;;;4.32;;
42094;SDS011;27753;55.724;37.612;2023-07-31T00:20:04;10.35;;;4.72;;
42094;SDS011;27753;55.724;37.612;2023-07-31T00:22:30;7.00;;;4.50;;
42094;SDS011;27753;55.724;37.612;2023-07-31T00:24:56;7.38;;;4.38;;
42094;SDS011;27753;55.724;37.612;2023-07-31T00:27:23;7.95;;;4.45;;
42094;SDS011;27753;55.724;37.612;2023-07-31T00:29:48;7.88;;;4.32;;
42094;SDS011;27753;55.724;37.612;2023-07-31T00:32:14;10.52;;;5.05;;
42094;SDS011;27753;55.724;37.612;2023-07-31T00:34:40;9.82;;;4.80;;
42094;SDS011;27753;55.724;37.612;2023-07-31T00:37:09;6.57;;;4.20;;
42094;SDS011;27753;55.724;37.612;2023-07-31T00:39:35;6.15;;;4.65;;
42094;SDS011;27753;55.724;37.612;2023-07-31T00:42:01;9.18;;;4.25;;
42094;SDS011;27753;55.724;37.612;2023-07-31T00:44:27;7.43;;;4.38;;
42094;SDS011;27753;55.724;37.612;2023-07-31T00:46:53;8.25;;;5.00;;
42094;SDS011;27753;55.724;37.612;2023-07-31T00:49:20;6.88;;;4.20;;
42094;SDS011;27753;55.724;37.612;2023-07-31T00:51:46;12.43;;;4.90;;
42094;SDS011;27753;55.724;37.612;2023-07-31T00:54:12;13.07;;;5.07;;
42094;SDS011;27753;55.724;37.612;2023-07-31T00:56:38;8.00;;;4.05;;
42094;SDS011;27753;55.724;37.612;2023-07-31T00:59:07;7.50;;;4.30;;
42094;SDS011;27753;55.724;37.612;2023-07-31T01:01:32;7.18;;;4.68;;
42094;SDS011;27753;55.724;37.612;2023-07-31T01:03:58;5.80;;;3.88;;
42094;SDS011;27753;55.724;37.612;2023-07-31T01:09:33;9.63;;;4.60;;
42094;SDS011;27753;55.724;37.612;2023-07-31T01:12:04;7.40;;;4.25;;
42094;SDS011;27753;55.724;37.612;2023-07-31T01:14:33;5.35;;;3.70;;
42094;SDS011;27753;55.724;37.612;2023-07-31T01:16:58;6.32;;;4.38;;
42094;SDS011;27753;55.724;37.612;2023-07-31T01:19:25;5.45;;;3.58;;
42094;SDS011;27753;55.724;37.612;2023-07-31T01:27:32;6.32;;;4.25;;
42094;SDS011;27753;55.724;37.612;2023-07-31T01:30:08;8.27;;;4.00;;
42094;SDS011;27753;55.724;37.612;2023-07-31T01:32:40;5.72;;;4.28;;
42094;SDS011;27753;55.724;37.612;2023-07-31T01:35:07;6.95;;;4.18;;
42094;SDS011;27753;55.724;37.612;2023-07-31T01:37:34;8.35;;;4.28;;
42094;SDS011;27753;55.724;37.612;2023-07-31T01:39:59;6.63;;;4.15;;
42094;SDS011;27753;55.724;37.612;2023-07-31T01:42:25;8.77;;;4.28;;
42094;SDS011;27753;55.724;37.612;2023-07-31T01:44:51;7.78;;;4.35;;
42094;SDS011;27753;55.724;37.612;2023-07-31T01:47:17;8.27;;;4.70;;
42094;SDS011;27753;55.724;37.612;2023-07-31T01:49:43;5.63;;;4.07;;
42094;SDS011;27753;55.724;37.612;2023-07-31T01:52:09;7.65;;;4.30;;
42094;SDS011;27753;55.724;37.612;2023-07-31T01:54:35;6.40;;;3.88;;
42094;SDS011;27753;55.724;37.612;2023-07-31T01:57:01;7.53;;;4.10;;
42094;SDS011;27753;55.724;37.612;2023-07-31T01:59:28;10.00;;;4.65;;
42094;SDS011;27753;55.724;37.612;2023-07-31T02:01:54;8.77;;;4.65;;
42094;SDS011;27753;55.724;37.612;2023-07-31T02:04:20;6.32;;;4.38;;
42094;SDS011;27753;55.724;37.612;2023-07-31T02:06:45;8.82;;;4.95;;
42094;SDS011;27753;55.724;37.612;2023-07-31T02:09:11;11.50;;;5.10;;
42094;SDS011;27753;55.724;37.612;2023-07-31T02:11:37;11.18;;;5.40;;
42094;SDS011;27753;55.724;37.612;2023-07-31T02:14:03;7.07;;;5.05;;
42094;SDS011;27753;55.724;37.612;2023-07-31T02:16:29;9.68;;;4.93;;
42094;SDS011;27753;55.724;37.612;2023-07-31T02:18:55;8.60;;;4.93;;
42094;SDS011;27753;55.724;37.612;2023-07-31T02:21:21;7.72;;;5.00;;
42094;SDS011;27753;55.724;37.612;2023-07-31T02:23:47;7.55;;;5.03;;
42094;SDS011;27753;55.724;37.612;2023-07-31T02:26:12;5.50;;;4.90;;
42094;SDS011;27753;55.724;37.612;2023-07-31T02:28:38;11.15;;;5.75;;
42094;SDS011;27753;55.724;37.612;2023-07-31T02:31:04;8.50;;;4.88;;
42094;SDS011;27753;55.724;37.612;2023-07-31T02:33:30;12.00;;;5.25;;
42094;SDS011;27753;55.724;37.612;2023-07-31T02:35:56;8.35;;;4.95;;
42094;SDS011;27753;55.724;37.612;2023-07-31T02:38:22;8.93;;;5.38;;
42094;SDS011;27753;55.724;37.612;2023-07-31T02:40:48;9.75;;;4.63;;
42094;SDS011;27753;55.724;37.612;2023-07-31T02:43:14;7.82;;;4.60;;
42094;SDS011;27753;55.724;37.612;2023-07-31T02:45:39;7.88;;;4.70;;
42094;SDS011;27753;55.724;37.612;2023-07-31T02:48:05;9.32;;;4.45;;
42094;SDS011;27753;55.724;37.612;2023-07-31T02:50:31;9.95;;;5.22;;
42094;SDS011;27753;55.724;37.612;2023-07-31T02:52:58;6.20;;;4.23;;
42094;SDS011;27753;55.724;37.612;2023-07-31T02:55:24;10.00;;;4.78;;
42094;SDS011;27753;55.724;37.612;2023-07-31T02:57:50;7.05;;;4.25;;
42094;SDS011;27753;55.724;37.612;2023-07-31T03:00:17;5.97;;;4.40;;
42094;SDS011;27753;55.724;37.612;2023-07-31T03:02:43;8.20;;;4.20;;
42094;SDS011;27753;55.724;37.612;2023-07-31T03:05:09;5.50;;;4.00;;
42094;SDS011;27753;55.724;37.612;2023-07-31T03:07:35;10.98;;;4.75;;
42094;SDS011;27753;55.724;37.612;2023-07-31T03:10:01;7.68;;;4.30;;
42094;SDS011;27753;55.724;37.612;2023-07-31T03:12:27;10.02;;;4.72;;
42094;SDS011;27753;55.724;37.612;2023-07-31T03:14:53;9.48;;;4.40;;
42094;SDS011;27753;55.724;37.612;2023-07-31T03:17:18;10.20;;;4.68;;
42094;SDS011;27753;55.724;37.612;2023-07-31T03:19:44;9.38;;;4.55;;
42094;SDS011;27753;55.724;37.612;2023-07-31T03:22:10;7.28;;;4.38;;
42094;SDS011;27753;55.724;37.612;2023-07-31T03:24:36;7.82;;;4.57;;
42094;SDS011;27753;55.724;37.612;2023-07-31T03:27:02;9.65;;;4.22;;
42094;SDS011;27753;55.724;37.612;2023-07-31T03:29:28;9.75;;;4.93;;
42094;SDS011;27753;55.724;37.612;2023-07-31T03:31:54;9.70;;;5.07;;
42094;SDS011;27753;55.724;37.612;2023-07-31T03:34:20;8.23;;;4.40;;
42094;SDS011;27753;55.724;37.612;2023-07-31T03:36:46;5.35;;;4.03;;
42094;SDS011;27753;55.724;37.612;2023-07-31T03:39:12;7.90;;;4.80;;
42094;SDS011;27753;55.724;37.612;2023-07-31T03:41:38;8.10;;;4.38;;
42094;SDS011;27753;55.724;37.612;2023-07-31T03:44:04;5.95;;;4.30;;
42094;SDS011;27753;55.724;37.612;2023-07-31T03:46:30;8.73;;;4.47;;
42094;SDS011;27753;55.724;37.612;2023-07-31T03:48:56;9.30;;;4.35;;
42094;SDS011;27753;55.724;37.612;2023-07-31T03:51:21;6.75;;;4.50;;
42094;SDS011;27753;55.724;37.612;2023-07-31T03:53:47;7.82;;;4.63;;
42094;SDS011;27753;55.724;37.612;2023-07-31T03:56:13;7.95;;;4.85;;
42094;SDS011;27753;55.724;37.612;2023-07-31T03:58:39;6.10;;;4.53;;
42094;SDS011;27753;55.724;37.612;2023-07-31T04:01:05;8.82;;;4.85;;
42094;SDS011;27753;55.724;37.612;2023-07-31T04:03:31;6.93;;;4.68;;
42094;SDS011;27753;55.724;37.612;2023-07-31T04:05:57;7.72;;;4.90;;
42094;SDS011;27753;55.724;37.612;2023-07-31T04:08:23;9.80;;;4.35;;
42094;SDS011;27753;55.724;37.612;2023-07-31T04:10:49;13.30;;;5.00;;
42094;SDS011;27753;55.724;37.612;2023-07-31T04:13:15;6.00;;;4.53;;
42094;SDS011;27753;55.724;37.612;2023-07-31T04:15:41;8.50;;;4.57;;
42094;SDS011;27753;55.724;37.612;2023-07-31T04:18:07;10.85;;;5.75;;
42094;SDS011;27753;55.724;37.612;2023-07-31T04:20:33;14.07;;;5.13;;
42094;SDS011;27753;55.724;37.612;2023-07-31T04:22:59;10.23;;;5.80;;
42094;SDS011;27753;55.724;37.612;2023-07-31T04:25:25;8.25;;;5.03;;
42094;SDS011;27753;55.724;37.612;2023-07-31T04:27:51;8.52;;;4.50;;
42094;SDS011;27753;55.724;37.612;2023-07-31T04:30:17;8.82;;;5.88;;
42094;SDS011;27753;55.724;37.612;2023-07-31T04:32:43;9.20;;;5.85;;
42094;SDS011;27753;55.724;37.612;2023-07-31T04:35:09;8.13;;;4.50;;
42094;SDS011;27753;55.724;37.612;2023-07-31T04:37:35;6.80;;;4.95;;
42094;SDS011;27753;55.724;37.612;2023-07-31T04:40:01;12.45;;;4.78;;
42094;SDS011;27753;55.724;37.612;2023-07-31T04:42:27;9.07;;;4.78;;
42094;SDS011;27753;55.724;37.612;2023-07-31T04:44:53;9.57;;;4.97;;
42094;SDS011;27753;55.724;37.612;2023-07-31T04:47:19;8.98;;;4.53;;
42094;SDS011;27753;55.724;37.612;2023-07-31T04:49:45;8.02;;;4.50;;
42094;SDS011;27753;55.724;37.612;2023-07-31T04:52:11;10.45;;;4.38;;
42094;SDS011;27753;55.724;37.612;2023-07-31T04:54:37;6.13;;;4.30;;
42094;SDS011;27753;55.724;37.612;2023-07-31T04:57:03;11.40;;;4.78;;
42094;SDS011;27753;55.724;37.612;2023-07-31T04:59:29;9.73;;;4.20;;
42094;SDS011;27753;55.724;37.612;2023-07-31T05:01:56;10.00;;;4.32;;
42094;SDS011;27753;55.724;37.612;2023-07-31T05:04:22;5.53;;;4.10;;
42094;SDS011;27753;55.724;37.612;2023-07-31T05:06:48;8.57;;;4.50;;
42094;SDS011;27753;55.724;37.612;2023-07-31T05:09:14;6.43;;;4.07;;
42094;SDS011;27753;55.724;37.612;2023-07-31T05:11:40;9.50;;;3.88;;
42094;SDS011;27753;55.724;37.612;2023-07-31T05:14:07;7.13;;;4.00;;
42094;SDS011;27753;55.724;37.612;2023-07-31T05:16:34;8.40;;;3.83;;
42094;SDS011;27753;55.724;37.612;2023-07-31T05:19:00;7.25;;;3.75;;
42094;SDS011;27753;55.724;37.612;2023-07-31T05:21:26;6.20;;;4.13;;
42094;SDS011;27753;55.724;37.612;2023-07-31T05:23:52;10.32;;;3.63;;
42094;SDS011;27753;55.724;37.612;2023-07-31T05:26:18;5.28;;;3.40;;
42094;SDS011;27753;55.724;37.612;2023-07-31T05:28:45;8.25;;;3.35;;
42094;SDS011;27753;55.724;37.612;2023-07-31T05:31:11;4.53;;;3.35;;
42094;SDS011;27753;55.724;37.612;2023-07-31T05:33:37;6.13;;;3.25;;
42094;SDS011;27753;55.724;37.612;2023-07-31T05:36:02;9.67;;;3.57;;
42094;SDS011;27753;55.724;37.612;2023-07-31T05:38:28;3.50;;;3.17;;
42094;SDS011;27753;55.724;37.612;2023-07-31T05:40:55;5.32;;;2.75;;
42094;SDS011;27753;55.724;37.612;2023-07-31T05:43:21;8.63;;;3.47;;
42094;SDS011;27753;55.724;37.612;2023-07-31T05:45:47;7.90;;;2.97;;
42094;SDS011;27753;55.724;37.612;2023-07-31T05:48:12;11.27;;;3.53;;
42094;SDS011;27753;55.724;37.612;2023-07-31T05:50:38;6.50;;;2.63;;
42094;SDS011;27753;55.724;37.612;2023-07-31T05:53:05;6.07;;;2.67;;
42094;SDS011;27753;55.724;37.612;2023-07-31T05:55:33;4.53;;;2.28;;
42094;SDS011;27753;55.724;37.612;2023-07-31T05:57:59;5.68;;;2.72;;
42094;SDS011;27753;55.724;37.612;2023-07-31T06:00:25;4.72;;;2.40;;
42094;SDS011;27753;55.724;37.612;2023-07-31T06:02:51;9.82;;;2.78;;
42094;SDS011;27753;55.724;37.612;2023-07-31T06:05:17;6.73;;;3.20;;
42094;SDS011;27753;55.724;37.612;2023-07-31T06:07:43;5.43;;;2.70;;
42094;SDS011;27753;55.724;37.612;2023-07-31T06:10:09;7.03;;;2.60;;
42094;SDS011;27753;55.724;37.612;2023-07-31T06:12:35;4.77;;;1.97;;
42094;SDS011;27753;55.724;37.612;2023-07-31T06:17:28;5.30;;;2.58;;
42094;SDS011;27753;55.724;37.612;2023-07-31T06:19:55;3.22;;;2.10;;
42094;SDS011;27753;55.724;37.612;2023-07-31T06:22:21;2.17;;;1.95;;
42094;SDS011;27753;55.724;37.612;2023-07-31T06:24:47;7.38;;;2.10;;
42094;SDS011;27753;55.724;37.612;2023-07-31T06:27:13;5.57;;;2.22;;
42094;SDS011;27753;55.724;37.612;2023-07-31T06:29:39;6.43;;;2.67;;
42094;SDS011;27753;55.724;37.612;2023-07-31T06:32:06;6.00;;;2.90;;
42094;SDS011;27753;55.724;37.612;2023-07-31T06:39:24;5.38;;;1.90;;
42094;SDS011;27753;55.724;37.612;2023-07-31T06:41:50;4.25;;;1.90;;
42094;SDS011;27753;55.724;37.612;2023-07-31T06:46:42;3.80;;;1.98;;
42094;SDS011;27753;55.724;37.612;2023-07-31T06:51:34;2.53;;;1.88;;
42094;SDS011;27753;55.724;37.612;2023-07-31T06:54:01;5.25;;;2.55;;
42094;SDS011;27753;55.724;37.612;2023-07-31T06:56:27;5.93;;;2.00;;
42094;SDS011;27753;55.724;37.612;2023-07-31T06:58:54;4.35;;;2.65;;
42094;SDS011;27753;55.724;37.612;2023-07-31T07:01:21;3.70;;;1.98;;
42094;SDS011;27753;55.724;37.612;2023-07-31T07:03:47;5.13;;;2.33;;
42094;SDS011;27753;55.724;37.612;2023-07-31T07:06:15;2.88;;;1.83;;
42094;SDS011;27753;55.724;37.612;2023-07-31T07:08:42;6.13;;;2.30;;
42094;SDS011;27753;55.724;37.612;2023-07-31T07:11:08;3.88;;;2.20;;
42094;SDS011;27753;55.724;37.612;2023-07-31T07:16:00;5.72;;;1.90;;
42094;SDS011;27753;55.724;37.612;2023-07-31T07:18:26;4.63;;;1.75;;
42094;SDS011;27753;55.724;37.612;2023-07-31T07:20:53;1.95;;;1.30;;
42094;SDS011;27753;55.724;37.612;2023-07-31T07:23:22;4.03;;;1.73;;
42094;SDS011;27753;55.724;37.612;2023-07-31T07:28:13;4.95;;;1.73;;
42094;SDS011;27753;55.724;37.612;2023-07-31T07:33:05;3.78;;;1.42;;
42094;SDS011;27753;55.724;37.612;2023-07-31T07:35:35;2.60;;;1.23;;
42094;SDS011;27753;55.724;37.612;2023-07-31T07:38:04;3.53;;;1.67;;
42094;SDS011;27753;55.724;37.612;2023-07-31T07:40:30;3.42;;;1.85;;
42094;SDS011;27753;55.724;37.612;2023-07-31T07:42:56;4.38;;;1.70;;
42094;SDS011;27753;55.724;37.612;2023-07-31T07:45:25;4.35;;;1.73;;
42094;SDS011;27753;55.724;37.612;2023-07-31T07:47:51;3.83;;;1.65;;
42094;SDS011;27753;55.724;37.612;2023-07-31T07:50:17;2.58;;;1.00;;
42094;SDS011;27753;55.724;37.612;2023-07-31T07:52:43;3.08;;;1.20;;
42094;SDS011;27753;55.724;37.612;2023-07-31T07:55:09;5.25;;;1.58;;
42094;SDS011;27753;55.724;37.612;2023-07-31T08:00:01;3.25;;;1.55;;
42094;SDS011;27753;55.724;37.612;2023-07-31T08:02:27;4.72;;;2.17;;
42094;SDS011;27753;55.724;37.612;2023-07-31T08:04:53;3.92;;;2.70;;
42094;SDS011;27753;55.724;37.612;2023-07-31T08:07:19;2.33;;;1.50;;
42094;SDS011;27753;55.724;37.612;2023-07-31T08:09:45;4.43;;;1.70;;
42094;SDS011;27753;55.724;37.612;2023-07-31T08:12:11;4.70;;;1.80;;
42094;SDS011;27753;55.724;37.612;2023-07-31T08:14:37;1.73;;;1.15;;
42094;SDS011;27753;55.724;37.612;2023-07-31T08:17:03;4.72;;;1.60;;
42094;SDS011;27753;55.724;37.612;2023-07-31T08:19:29;5.85;;;1.35;;
42094;SDS011;27753;55.724;37.612;2023-07-31T08:21:55;6.38;;;2.50;;
42094;SDS011;27753;55.724;37.612;2023-07-31T08:24:21;2.33;;;1.70;;
42094;SDS011;27753;55.724;37.612;2023-07-31T08:26:47;8.18;;;2.13;;
42094;SDS011;27753;55.724;37.612;2023-07-31T08:29:13;5.03;;;1.85;;
42094;SDS011;27753;55.724;37.612;2023-07-31T08:31:39;4.32;;;1.73;;
42094;SDS011;27753;55.724;37.612;2023-07-31T08:34:05;2.20;;;1.52;;
42094;SDS011;27753;55.724;37.612;2023-07-31T08:36:31;4.85;;;1.85;;
42094;SDS011;27753;55.724;37.612;2023-07-31T08:38:57;2.80;;;1.55;;
42094;SDS011;27753;55.724;37.612;2023-07-31T08:41:23;7.18;;;1.83;;
42094;SDS011;27753;55.724;37.612;2023-07-31T08:43:49;4.93;;;1.58;;
42094;SDS011;27753;55.724;37.612;2023-07-31T08:46:17;3.88;;;1.63;;
42094;SDS011;27753;55.724;37.612;2023-07-31T08:48:44;5.80;;;1.77;;
42094;SDS011;27753;55.724;37.612;2023-07-31T08:51:13;2.97;;;1.95;;
42094;SDS011;27753;55.724;37.612;2023-07-31T08:53:39;2.63;;;2.30;;
42094;SDS011;27753;55.724;37.612;2023-07-31T08:56:06;4.55;;;1.75;;
42094;SDS011;27753;55.724;37.612;2023-07-31T08:58:32;3.60;;;1.70;;
42094;SDS011;27753;55.724;37.612;2023-07-31T09:01:01;3.65;;;1.58;;
42094;SDS011;27753;55.724;37.612;2023-07-31T09:03:32;3.92;;;1.50;;
42094;SDS011;27753;55.724;37.612;2023-07-31T09:06:00;4.25;;;1.85;;
42094;SDS011;27753;55.724;37.612;2023-07-31T09:08:29;2.28;;;1.70;;
42094;SDS011;27753;55.724;37.612;2023-07-31T09:10:58;3.33;;;1.55;;
42094;SDS011;27753;55.724;37.612;2023-07-31T09:13:31;3.63;;;1.58;;
42094;SDS011;27753;55.724;37.612;2023-07-31T09:15:57;1.67;;;1.27;;
42094;SDS011;27753;55.724;37.612;2023-07-31T09:18:24;6.00;;;1.70;;
42094;SDS011;27753;55.724;37.612;2023-07-31T09:23:39;3.47;;;1.70;;
42094;SDS011;27753;55.724;37.612;2023-07-31T09:26:07;2.40;;;1.73;;
42094;SDS011;27753;55.724;37.612;2023-07-31T09:28:33;3.72;;;1.70;;
42094;SDS011;27753;55.724;37.612;2023-07-31T09:30:59;3.50;;;1.50;;
42094;SDS011;27753;55.724;37.612;2023-07-31T09:33:25;2.83;;;1.67;;
42094;SDS011;27753;55.724;37.612;2023-07-31T09:35:51;3.95;;;1.63;;
42094;SDS011;27753;55.724;37.612;2023-07-31T09:38:17;4.88;;;1.73;;
42094;SDS011;27753;55.724;37.612;2023-07-31T09:40:44;6.82;;;2.15;;
42094;SDS011;27753;55.724;37.612;2023-07-31T09:43:16;6.03;;;2.80;;
42094;SDS011;27753;55.724;37.612;2023-07-31T09:45:46;2.63;;;1.73;;
42094;SDS011;27753;55.724;37.612;2023-07-31T09:48:13;2.58;;;1.67;;
42094;SDS011;27753;55.724;37.612;2023-07-31T09:50:44;2.80;;;1.55;;
42094;SDS011;27753;55.724;37.612;2023-07-31T09:53:11;2.47;;;1.92;;
42094;SDS011;27753;55.724;37.612;2023-07-31T09:55:38;3.83;;;2.25;;
42094;SDS011;27753;55.724;37.612;2023-07-31T09:58:06;3.67;;;1.95;;
42094;SDS011;27753;55.724;37.612;2023-07-31T10:00:34;2.15;;;1.95;;
42094;SDS011;27753;55.724;37.612;2023-07-31T10:03:01;3.80;;;1.67;;
42094;SDS011;27753;55.724;37.612;2023-07-31T10:05:30;1.90;;;1.73;;
42094;SDS011;27753;55.724;37.612;2023-07-31T10:08:00;4.97;;;1.77;;
42094;SDS011;27753;55.724;37.612;2023-07-31T10:10:26;3.38;;;1.85;;
42094;SDS011;27753;55.724;37.612;2023-07-31T10:12:53;3.15;;;1.70;;
42094;SDS011;27753;55.724;37.612;2023-07-31T10:15:21;2.08;;;1.73;;
42094;SDS011;27753;55.724;37.612;2023-07-31T10:17:48;4.22;;;1.98;;
42094;SDS011;27753;55.724;37.612;2023-07-31T10:20:15;4.40;;;2.20;;
42094;SDS011;27753;55.724;37.612;2023-07-31T10:22:42;4.57;;;4.07;;
42094;SDS011;27753;55.724;37.612;2023-07-31T10:25:11;6.28;;;1.98;;
42094;SDS011;27753;55.724;37.612;2023-07-31T10:27:40;4.90;;;3.30;;
42094;SDS011;27753;55.724;37.612;2023-07-31T10:30:11;5.25;;;2.25;;
42094;SDS011;27753;55.724;37.612;2023-07-31T10:32:40;2.45;;;1.90;;
42094;SDS011;27753;55.724;37.612;2023-07-31T10:35:08;4.35;;;2.30;;
42094;SDS011;27753;55.724;37.612;2023-07-31T10:37:41;4.35;;;1.95;;
42094;SDS011;27753;55.724;37.612;2023-07-31T10:40:12;6.18;;;2.67;;
42094;SDS011;27753;55.724;37.612;2023-07-31T10:42:45;3.17;;;2.28;;
42094;SDS011;27753;55.724;37.612;2023-07-31T10:45:13;10.32;;;3.40;;
42094;SDS011;27753;55.724;37.612;2023-07-31T10:47:48;6.57;;;4.30;;
42094;SDS011;27753;55.724;37.612;2023-07-31T10:50:18;3.55;;;2.35;;
42094;SDS011;27753;55.724;37.612;2023-07-31T10:52:50;4.70;;;3.10;;
42094;SDS011;27753;55.724;37.612;2023-07-31T10:57:53;4.55;;;2.97;;
42094;SDS011;27753;55.724;37.612;2023-07-31T11:05:43;4.25;;;3.28;;
42094;SDS011;27753;55.724;37.612;2023-07-31T11:13:32;11.55;;;4.07;;
42094;SDS011;27753;55.724;37.612;2023-07-31T11:15:59;7.32;;;2.92;;
42094;SDS011;27753;55.724;37.612;2023-07-31T11:18:26;6.07;;;2.92;;
42094;SDS011;27753;55.724;37.612;2023-07-31T11:20:52;6.80;;;2.80;;
42094;SDS011;27753;55.724;37.612;2023-07-31T11:23:19;5.57;;;2.65;;
42094;SDS011;27753;55.724;37.612;2023-07-31T11:25:46;7.15;;;2.78;;
42094;SDS011;27753;55.724;37.612;2023-07-31T11:28:13;5.00;;;2.27;;
42094;SDS011;27753;55.724;37.612;2023-07-31T11:30:41;4.18;;;2.47;;
42094;SDS011;27753;55.724;37.612;2023-07-31T11:33:09;5.88;;;2.75;;
42094;SDS011;27753;55.724;37.612;2023-07-31T11:35:40;3.30;;;2.83;;
42094;SDS011;27753;55.724;37.612;2023-07-31T11:38:09;4.13;;;2.55;;
42094;SDS011;27753;55.724;37.612;2023-07-31T11:40:56;4.43;;;3.13;;
42094;SDS011;27753;55.724;37.612;2023-07-31T11:43:30;8.90;;;3.35;;
42094;SDS011;27753;55.724;37.612;2023-07-31T11:45:58;3.60;;;2.83;;
42094;SDS011;27753;55.724;37.612;2023-07-31T11:48:29;5.25;;;2.85;;
42094;SDS011;27753;55.724;37.612;2023-07-31T11:50:59;4.97;;;2.72;;
42094;SDS011;27753;55.724;37.612;2023-07-31T11:56:09;5.70;;;3.22;;
42094;SDS011;27753;55.724;37.612;2023-07-31T11:58:38;5.30;;;4.25;;
42094;SDS011;27753;55.724;37.612;2023-07-31T12:01:06;6.28;;;4.47;;
42094;SDS011;27753;55.724;37.612;2023-07-31T12:03:32;3.72;;;2.85;;
42094;SDS011;27753;55.724;37.612;2023-07-31T12:05:59;7.72;;;3.83;;
42094;SDS011;27753;55.724;37.612;2023-07-31T12:08:26;8.93;;;4.20;;
42094;SDS011;27753;55.724;37.612;2023-07-31T12:10:52;6.67;;;3.77;;
42094;SDS011;27753;55.724;37.612;2023-07-31T12:15:46;8.38;;;3.47;;
42094;SDS011;27753;55.724;37.612;2023-07-31T12:18:14;3.75;;;3.22;;
42094;SDS011;27753;55.724;37.612;2023-07-31T12:20:45;8.10;;;3.70;;
42094;SDS011;27753;55.724;37.612;2023-07-31T12:23:13;7.05;;;3.22;;
42094;SDS011;27753;55.724;37.612;2023-07-31T12:26:10;5.60;;;3.30;;
42094;SDS011;27753;55.724;37.612;2023-07-31T12:28:47;4.68;;;3.60;;
42094;SDS011;27753;55.724;37.612;2023-07-31T12:31:18;7.20;;;3.40;;
42094;SDS011;27753;55.724;37.612;2023-07-31T12:33:47;5.13;;;3.58;;
42094;SDS011;27753;55.724;37.612;2023-07-31T12:36:16;8.23;;;3.10;;
42094;SDS011;27753;55.724;37.612;2023-07-31T12:38:43;10.23;;;3.78;;
42094;SDS011;27753;55.724;37.612;2023-07-31T12:41:09;5.57;;;3.13;;
42094;SDS011;27753;55.724;37.612;2023-07-31T12:43:36;7.72;;;3.53;;
42094;SDS011;27753;55.724;37.612;2023-07-31T12:48:28;6.83;;;2.93;;
42094;SDS011;27753;55.724;37.612;2023-07-31T12:50:54;6.93;;;3.20;;
42094;SDS011;27753;55.724;37.612;2023-07-31T12:53:21;5.20;;;3.10;;
42094;SDS011;27753;55.724;37.612;2023-07-31T12:55:47;5.15;;;3.22;;
42094;SDS011;27753;55.724;37.612;2023-07-31T12:58:13;10.05;;;3.80;;
42094;SDS011;27753;55.724;37.612;2023-07-31T13:00:38;10.98;;;6.18;;
42094;SDS011;27753;55.724;37.612;2023-07-31T13:03:05;10.70;;;3.88;;
42094;SDS011;27753;55.724;37.612;2023-07-31T13:05:31;6.60;;;3.03;;
42094;SDS011;27753;55.724;37.612;2023-07-31T13:07:57;7.20;;;2.83;;
42094;SDS011;27753;55.724;37.612;2023-07-31T13:10:23;3.17;;;2.67;;
42094;SDS011;27753;55.724;37.612;2023-07-31T13:12:53;5.63;;;3.08;;
42094;SDS011;27753;55.724;37.612;2023-07-31T13:15:19;3.75;;;2.65;;
42094;SDS011;27753;55.724;37.612;2023-07-31T13:17:45;4.85;;;2.80;;
42094;SDS011;27753;55.724;37.612;2023-07-31T13:20:11;7.95;;;3.50;;
42094;SDS011;27753;55.724;37.612;2023-07-31T13:22:37;4.73;;;3.20;;
42094;SDS011;27753;55.724;37.612;2023-07-31T13:25:04;8.90;;;3.42;;
42094;SDS011;27753;55.724;37.612;2023-07-31T13:27:30;6.65;;;2.88;;
42094;SDS011;27753;55.724;37.612;2023-07-31T13:29:56;6.40;;;3.15;;
42094;SDS011;27753;55.724;37.612;2023-07-31T13:32:22;7.43;;;3.08;;
42094;SDS011;27753;55.724;37.612;2023-07-31T13:34:48;3.55;;;3.10;;
42094;SDS011;27753;55.724;37.612;2023-07-31T13:37:14;5.67;;;3.13;;
42094;SDS011;27753;55.724;37.612;2023-07-31T13:39:41;6.88;;;3.83;;
42094;SDS011;27753;55.724;37.612;2023-07-31T13:42:07;5.10;;;3.13;;
42094;SDS011;27753;55.724;37.612;2023-07-31T13:44:34;7.28;;;3.33;;
42094;SDS011;27753;55.724;37.612;2023-07-31T13:47:00;5.07;;;3.38;;
42094;SDS011;27753;55.724;37.612;2023-07-31T13:49:27;8.97;;;3.70;;
42094;SDS011;27753;55.724;37.612;2023-07-31T13:51:53;5.22;;;3.22;;
42094;SDS011;27753;55.724;37.612;2023-07-31T13:54:19;8.43;;;5.15;;
42094;SDS011;27753;55.724;37.612;2023-07-31T13:56:45;9.88;;;3.38;;
42094;SDS011;27753;55.724;37.612;2023-07-31T13:59:11;6.40;;;3.45;;
42094;SDS011;27753;55.724;37.612;2023-07-31T14:01:37;9.48;;;3.55;;
42094;SDS011;27753;55.724;37.612;2023-07-31T14:04:03;8.13;;;3.83;;
42094;SDS011;27753;55.724;37.612;2023-07-31T14:06:29;10.57;;;6.68;;
42094;SDS011;27753;55.724;37.612;2023-07-31T14:08:55;8.63;;;4.45;;
42094;SDS011;27753;55.724;37.612;2023-07-31T14:11:21;10.23;;;4.45;;
42094;SDS011;27753;55.724;37.612;2023-07-31T14:13:49;7.55;;;2.85;;
42094;SDS011;27753;55.724;37.612;2023-07-31T14:16:15;3.75;;;2.80;;
42094;SDS011;27753;55.724;37.612;2023-07-31T14:18:41;9.93;;;4.20;;
42094;SDS011;27753;55.724;37.612;2023-07-31T14:21:07;7.40;;;3.30;;
42094;SDS011;27753;55.724;37.612;2023-07-31T14:23:33;7.10;;;3.30;;
42094;SDS011;27753;55.724;37.612;2023-07-31T14:25:59;6.70;;;3.50;;
42094;SDS011;27753;55.724;37.612;2023-07-31T14:28:25;6.53;;;3.10;;
42094;SDS011;27753;55.724;37.612;2023-07-31T14:30:51;7.53;;;3.33;;
42094;SDS011;27753;55.724;37.612;2023-07-31T14:33:17;12.25;;;4.28;;
42094;SDS011;27753;55.724;37.612;2023-07-31T14:35:43;5.47;;;3.28;;
42094;SDS011;27753;55.724;37.612;2023-07-31T14:38:09;4.37;;;3.30;;
42094;SDS011;27753;55.724;37.612;2023-07-31T14:40:35;6.85;;;3.47;;
42094;SDS011;27753;55.724;37.612;2023-07-31T14:43:03;7.50;;;3.88;;
42094;SDS011;27753;55.724;37.612;2023-07-31T14:45:29;11.40;;;4.03;;
42094;SDS011;27753;55.724;37.612;2023-07-31T14:47:55;14.27;;;5.55;;
42094;SDS011;27753;55.724;37.612;2023-07-31T14:50:21;16.23;;;9.27;;
42094;SDS011;27753;55.724;37.612;2023-07-31T14:52:48;10.60;;;5.57;;
42094;SDS011;27753;55.724;37.612;2023-07-31T14:55:14;6.53;;;4.47;;
42094;SDS011;27753;55.724;37.612;2023-07-31T14:57:40;10.30;;;4.97;;
42094;SDS011;27753;55.724;37.612;2023-07-31T15:00:06;8.88;;;5.05;;
42094;SDS011;27753;55.724;37.612;2023-07-31T15:02:39;6.90;;;4.75;;
42094;SDS011;27753;55.724;37.612;2023-07-31T15:05:05;11.82;;;5.35;;
42094;SDS011;27753;55.724;37.612;2023-07-31T15:07:32;11.25;;;4.00;;
42094;SDS011;27753;55.724;37.612;2023-07-31T15:09:59;6.72;;;3.90;;
42094;SDS011;27753;55.724;37.612;2023-07-31T15:12:28;9.80;;;4.35;;
42094;SDS011;27753;55.724;37.612;2023-07-31T15:14:54;12.77;;;4.40;;
42094;SDS011;27753;55.724;37.612;2023-07-31T15:17:20;6.90;;;4.72;;
42094;SDS011;27753;55.724;37.612;2023-07-31T15:19:46;6.63;;;3.50;;
42094;SDS011;27753;55.724;37.612;2023-07-31T15:22:12;11.40;;;3.88;;
42094;SDS011;27753;55.724;37.612;2023-07-31T15:24:38;10.10;;;3.50;;